This is the latest recevied weather packets stored in our database for station/object K5BOU. If no packets are shown the sender has not sent any weather packets the latest 10 day(s).
| Time | Temp. | Humidity | Pressure | Rain* | Wind** | Luminosity | Snow |
|---|---|---|---|---|---|---|---|
| 1788552251 | 32.78° C | 75% | 1011.8 hPa | 0 mm | - | 704 W/m² | - |
| 1788551947 | 33.33° C | 75% | 1011.6 hPa | 0 mm | - | 500 W/m² | - |
| 1788551644 | 32.78° C | 74% | 1011.8 hPa | 0 mm | - | 704 W/m² | - |
| 1788551339 | 32.78° C | 75% | 1011.7 hPa | 0 mm | - | 668 W/m² | - |
| 1788551038 | 32.78° C | 77% | 1012 hPa | 0 mm | - | 738 W/m² | - |
| 1788550734 | 32.22° C | 80% | 1011.9 hPa | 0 mm | - | 726 W/m² | - |
| 1788550429 | 31.67° C | 81% | 1012.2 hPa | 0 mm | - | 725 W/m² | - |
| 1788550124 | 31.11° C | 84% | 1012.1 hPa | 0 mm | - | 720 W/m² | - |
| 1788549819 | 30.56° C | 86% | 1012 hPa | 0 mm | - | 685 W/m² | - |
| 1788549543 | 30.56° C | 88% | 1011.8 hPa | 0 mm | - | 764 W/m² | - |
| 1788549212 | 28.89° C | 95% | 1012.2 hPa | 0 mm | - | 732 W/m² | - |
| 1788548909 | 27.78° C | 99% | 1012.1 hPa | 0 mm | - | 632 W/m² | - |
| 1788548604 | 27.22° C | 99% | 1012.2 hPa | 0 mm | - | 641 W/m² | - |
| 1788548300 | 26.67° C | 99% | 1012.2 hPa | 0 mm | - | 623 W/m² | - |
| 1788547996 | 26.67° C | 99% | 1012.5 hPa | 0 mm | - | 659 W/m² | - |
| 1788547695 | 26.67° C | 99% | 1012.5 hPa | 0 mm | - | 348 W/m² | - |
| 1788547390 | 26.67° C | 99% | 1013.1 hPa | 0 mm | - | 197 W/m² | - |
| 1788547085 | 26.67° C | 99% | 1013.2 hPa | 0 mm | - | 150 W/m² | - |
| 1788546780 | 26.11° C | 99% | 1013.4 hPa | 0 mm | - | 115 W/m² | - |
| 1788546475 | 25.56° C | 99% | 1013.5 hPa | 0 mm | - | 84 W/m² | - |
| 1788546170 | 25.56° C | 99% | 1013.8 hPa | 0 mm | - | 44 W/m² | - |
| 1788545866 | 25.56° C | 99% | 1013.4 hPa | 0 mm | - | 65 W/m² | - |
| 1788545566 | 25.56° C | 99% | 1013.4 hPa | 0 mm | - | 103 W/m² | - |
| 1788545261 | 25.56° C | 99% | 1013.4 hPa | 0 mm | - | 117 W/m² | - |
| 1788544957 | 26.11° C | 99% | 1013.4 hPa | 0 mm | - | 136 W/m² | - |
* Rain latest hour (hover to see other rain measurements)
** Current wind speed in m/s (hover to see current wind gust speed)